Search for airport 
image banner adimage banner ad
image banner ad

TLPC - Castries/George F. Charles - Int

Located in Castries, Saint Lucia

ICAO - TLPC, IATA - SLU

Data provided by Airmate  

General information

Coordinates: N14°1'12" W60°59'35"
Elevation is 22 feet MSL.
 
Rated:
View ratings: [VIEW]


View others Airports in Castries

Operational data

Open for public use
Current time UTC:
Current local time:
Weather
METAR: TLPC 201000Z 00000KT 9999 FEW023 26/24 Q1012 NOSIG
TAF: TAF TLPC 200500Z 2006/2106 13007KT 9999 FEW015CB SCT024 TEMPO 2012/2100 SHRA
View NOTAMs / SUP AIP / TFR affecting this airport [VIEW]
Communications frequencies: [VIEW]

Runways:

RWY identifierQFULength (ft)Width (ft)SurfaceLDA (ft)
0975°6227148ASP
27255°6227148

Airport contact information

Address: Castries Saint Lucia

Satellite view of TLPC